sensor_id;sensor_type;location;lat;lon;timestamp;P1;durP1;ratioP1;P2;durP2;ratioP2
16667;SDS011;8447;52.630;4.734;2023-04-03T00:00:13;1.00;;;0.90;;
16667;SDS011;8447;52.630;4.734;2023-04-03T00:02:40;2.80;;;0.83;;
16667;SDS011;8447;52.630;4.734;2023-04-03T00:05:06;1.40;;;0.90;;
16667;SDS011;8447;52.630;4.734;2023-04-03T00:07:33;0.90;;;0.80;;
16667;SDS011;8447;52.630;4.734;2023-04-03T00:10:01;3.30;;;1.23;;
16667;SDS011;8447;52.630;4.734;2023-04-03T00:12:28;0.53;;;0.50;;
16667;SDS011;8447;52.630;4.734;2023-04-03T00:14:54;2.57;;;0.80;;
16667;SDS011;8447;52.630;4.734;2023-04-03T00:17:20;1.20;;;1.00;;
16667;SDS011;8447;52.630;4.734;2023-04-03T00:19:47;2.63;;;0.70;;
16667;SDS011;8447;52.630;4.734;2023-04-03T00:22:13;0.93;;;0.73;;
16667;SDS011;8447;52.630;4.734;2023-04-03T00:24:40;2.37;;;0.90;;
16667;SDS011;8447;52.630;4.734;2023-04-03T00:27:08;2.97;;;1.00;;
16667;SDS011;8447;52.630;4.734;2023-04-03T00:29:36;0.97;;;0.67;;
16667;SDS011;8447;52.630;4.734;2023-04-03T00:32:02;1.10;;;0.70;;
16667;SDS011;8447;52.630;4.734;2023-04-03T00:34:28;1.50;;;0.80;;
16667;SDS011;8447;52.630;4.734;2023-04-03T00:36:55;1.43;;;0.70;;
16667;SDS011;8447;52.630;4.734;2023-04-03T00:39:21;2.90;;;1.00;;
16667;SDS011;8447;52.630;4.734;2023-04-03T00:41:48;0.50;;;0.50;;
16667;SDS011;8447;52.630;4.734;2023-04-03T00:44:23;1.30;;;0.87;;
16667;SDS011;8447;52.630;4.734;2023-04-03T00:47:09;2.37;;;1.00;;
16667;SDS011;8447;52.630;4.734;2023-04-03T00:49:36;1.40;;;0.97;;
16667;SDS011;8447;52.630;4.734;2023-04-03T00:52:03;1.70;;;0.60;;
16667;SDS011;8447;52.630;4.734;2023-04-03T00:54:31;2.43;;;0.90;;
16667;SDS011;8447;52.630;4.734;2023-04-03T00:56:58;3.60;;;0.97;;
16667;SDS011;8447;52.630;4.734;2023-04-03T00:59:27;1.80;;;0.70;;
16667;SDS011;8447;52.630;4.734;2023-04-03T01:01:56;1.70;;;0.70;;
16667;SDS011;8447;52.630;4.734;2023-04-03T01:04:26;1.07;;;0.80;;
16667;SDS011;8447;52.630;4.734;2023-04-03T01:06:52;1.03;;;0.70;;
16667;SDS011;8447;52.630;4.734;2023-04-03T01:09:20;1.33;;;0.83;;
16667;SDS011;8447;52.630;4.734;2023-04-03T01:11:47;3.37;;;0.90;;
16667;SDS011;8447;52.630;4.734;2023-04-03T01:14:13;2.33;;;0.80;;
16667;SDS011;8447;52.630;4.734;2023-04-03T01:16:41;1.30;;;0.90;;
16667;SDS011;8447;52.630;4.734;2023-04-03T01:19:08;1.07;;;0.67;;
16667;SDS011;8447;52.630;4.734;2023-04-03T01:21:53;1.73;;;0.70;;
16667;SDS011;8447;52.630;4.734;2023-04-03T01:24:27;3.30;;;0.70;;
16667;SDS011;8447;52.630;4.734;2023-04-03T01:26:57;1.87;;;0.73;;
16667;SDS011;8447;52.630;4.734;2023-04-03T01:29:23;2.43;;;0.80;;
16667;SDS011;8447;52.630;4.734;2023-04-03T01:31:52;0.60;;;0.60;;
16667;SDS011;8447;52.630;4.734;2023-04-03T01:34:19;1.57;;;1.07;;
16667;SDS011;8447;52.630;4.734;2023-04-03T01:36:45;3.07;;;0.70;;
16667;SDS011;8447;52.630;4.734;2023-04-03T01:39:12;2.97;;;0.80;;
16667;SDS011;8447;52.630;4.734;2023-04-03T01:41:38;1.70;;;0.93;;
16667;SDS011;8447;52.630;4.734;2023-04-03T01:44:04;1.80;;;1.00;;
16667;SDS011;8447;52.630;4.734;2023-04-03T01:46:31;2.10;;;0.90;;
16667;SDS011;8447;52.630;4.734;2023-04-03T01:48:58;1.40;;;0.93;;
16667;SDS011;8447;52.630;4.734;2023-04-03T01:51:25;1.27;;;0.60;;
16667;SDS011;8447;52.630;4.734;2023-04-03T01:53:51;3.60;;;1.20;;
16667;SDS011;8447;52.630;4.734;2023-04-03T01:56:18;1.63;;;0.73;;
16667;SDS011;8447;52.630;4.734;2023-04-03T01:58:45;1.87;;;0.80;;
16667;SDS011;8447;52.630;4.734;2023-04-03T02:01:11;2.80;;;0.80;;
16667;SDS011;8447;52.630;4.734;2023-04-03T02:03:37;0.70;;;0.70;;
16667;SDS011;8447;52.630;4.734;2023-04-03T02:06:05;2.07;;;0.67;;
16667;SDS011;8447;52.630;4.734;2023-04-03T02:08:32;2.10;;;0.83;;
16667;SDS011;8447;52.630;4.734;2023-04-03T02:10:59;1.13;;;0.90;;
16667;SDS011;8447;52.630;4.734;2023-04-03T02:13:25;0.70;;;0.70;;
16667;SDS011;8447;52.630;4.734;2023-04-03T02:15:51;1.10;;;0.70;;
16667;SDS011;8447;52.630;4.734;2023-04-03T02:18:18;2.00;;;0.70;;
16667;SDS011;8447;52.630;4.734;2023-04-03T02:20:45;2.37;;;1.03;;
16667;SDS011;8447;52.630;4.734;2023-04-03T02:23:13;0.67;;;0.67;;
16667;SDS011;8447;52.630;4.734;2023-04-03T02:25:40;1.47;;;0.70;;
16667;SDS011;8447;52.630;4.734;2023-04-03T02:28:06;0.90;;;0.70;;
16667;SDS011;8447;52.630;4.734;2023-04-03T02:30:32;2.33;;;0.80;;
16667;SDS011;8447;52.630;4.734;2023-04-03T02:32:59;2.33;;;0.83;;
16667;SDS011;8447;52.630;4.734;2023-04-03T02:35:25;1.13;;;0.80;;
16667;SDS011;8447;52.630;4.734;2023-04-03T02:37:52;1.60;;;0.80;;
16667;SDS011;8447;52.630;4.734;2023-04-03T02:40:20;2.10;;;1.00;;
16667;SDS011;8447;52.630;4.734;2023-04-03T02:42:46;2.53;;;1.00;;
16667;SDS011;8447;52.630;4.734;2023-04-03T02:45:12;2.07;;;1.10;;
16667;SDS011;8447;52.630;4.734;2023-04-03T02:47:39;1.57;;;0.67;;
16667;SDS011;8447;52.630;4.734;2023-04-03T02:50:05;1.17;;;0.67;;
16667;SDS011;8447;52.630;4.734;2023-04-03T02:52:31;4.43;;;1.20;;
16667;SDS011;8447;52.630;4.734;2023-04-03T02:54:58;1.23;;;0.63;;
16667;SDS011;8447;52.630;4.734;2023-04-03T02:57:26;3.60;;;1.33;;
16667;SDS011;8447;52.630;4.734;2023-04-03T02:59:52;3.07;;;0.80;;
16667;SDS011;8447;52.630;4.734;2023-04-03T03:02:18;1.50;;;0.93;;
16667;SDS011;8447;52.630;4.734;2023-04-03T03:04:45;1.03;;;0.90;;
16667;SDS011;8447;52.630;4.734;2023-04-03T03:07:11;1.47;;;0.90;;
16667;SDS011;8447;52.630;4.734;2023-04-03T03:09:38;1.23;;;0.70;;
16667;SDS011;8447;52.630;4.734;2023-04-03T03:12:04;2.10;;;0.70;;
16667;SDS011;8447;52.630;4.734;2023-04-03T03:14:32;1.83;;;0.80;;
16667;SDS011;8447;52.630;4.734;2023-04-03T03:16:58;2.23;;;0.87;;
16667;SDS011;8447;52.630;4.734;2023-04-03T03:19:25;1.20;;;0.97;;
16667;SDS011;8447;52.630;4.734;2023-04-03T03:21:51;5.43;;;1.20;;
16667;SDS011;8447;52.630;4.734;2023-04-03T03:24:17;2.67;;;1.20;;
16667;SDS011;8447;52.630;4.734;2023-04-03T03:26:44;5.93;;;0.93;;
16667;SDS011;8447;52.630;4.734;2023-04-03T03:29:10;1.20;;;0.73;;
16667;SDS011;8447;52.630;4.734;2023-04-03T03:31:38;1.57;;;0.60;;
16667;SDS011;8447;52.630;4.734;2023-04-03T03:34:04;0.70;;;0.70;;
16667;SDS011;8447;52.630;4.734;2023-04-03T03:36:31;2.50;;;1.30;;
16667;SDS011;8447;52.630;4.734;2023-04-03T03:38:57;4.40;;;1.07;;
16667;SDS011;8447;52.630;4.734;2023-04-03T03:41:24;1.20;;;0.80;;
16667;SDS011;8447;52.630;4.734;2023-04-03T03:43:50;2.47;;;1.07;;
16667;SDS011;8447;52.630;4.734;2023-04-03T03:46:16;1.33;;;0.60;;
16667;SDS011;8447;52.630;4.734;2023-04-03T03:48:44;1.50;;;0.90;;
16667;SDS011;8447;52.630;4.734;2023-04-03T03:51:10;3.03;;;1.20;;
16667;SDS011;8447;52.630;4.734;2023-04-03T03:53:37;3.63;;;1.17;;
16667;SDS011;8447;52.630;4.734;2023-04-03T03:56:03;2.60;;;1.07;;
16667;SDS011;8447;52.630;4.734;2023-04-03T03:58:30;1.13;;;0.87;;
16667;SDS011;8447;52.630;4.734;2023-04-03T04:00:59;1.93;;;0.90;;
16667;SDS011;8447;52.630;4.734;2023-04-03T04:03:26;1.30;;;0.90;;
16667;SDS011;8447;52.630;4.734;2023-04-03T04:05:54;1.23;;;0.83;;
16667;SDS011;8447;52.630;4.734;2023-04-03T04:08:20;1.93;;;1.13;;
16667;SDS011;8447;52.630;4.734;2023-04-03T04:10:46;0.97;;;0.83;;
16667;SDS011;8447;52.630;4.734;2023-04-03T04:13:13;4.80;;;1.13;;
16667;SDS011;8447;52.630;4.734;2023-04-03T04:15:39;1.43;;;1.00;;
16667;SDS011;8447;52.630;4.734;2023-04-03T04:18:06;1.80;;;0.90;;
16667;SDS011;8447;52.630;4.734;2023-04-03T04:20:32;2.80;;;0.90;;
16667;SDS011;8447;52.630;4.734;2023-04-03T04:23:00;2.83;;;1.13;;
16667;SDS011;8447;52.630;4.734;2023-04-03T04:25:26;2.60;;;0.90;;
16667;SDS011;8447;52.630;4.734;2023-04-03T04:27:53;2.27;;;1.03;;
16667;SDS011;8447;52.630;4.734;2023-04-03T04:30:19;1.47;;;0.83;;
16667;SDS011;8447;52.630;4.734;2023-04-03T04:32:45;1.43;;;1.13;;
16667;SDS011;8447;52.630;4.734;2023-04-03T04:35:12;1.70;;;1.00;;
16667;SDS011;8447;52.630;4.734;2023-04-03T04:37:38;1.97;;;0.93;;
16667;SDS011;8447;52.630;4.734;2023-04-03T04:40:07;2.40;;;1.00;;
16667;SDS011;8447;52.630;4.734;2023-04-03T04:42:33;1.43;;;0.90;;
16667;SDS011;8447;52.630;4.734;2023-04-03T04:45:00;2.77;;;0.73;;
16667;SDS011;8447;52.630;4.734;2023-04-03T04:47:27;1.13;;;1.03;;
16667;SDS011;8447;52.630;4.734;2023-04-03T04:49:55;1.83;;;0.90;;
16667;SDS011;8447;52.630;4.734;2023-04-03T04:52:22;1.70;;;1.00;;
16667;SDS011;8447;52.630;4.734;2023-04-03T04:54:48;1.17;;;0.80;;
16667;SDS011;8447;52.630;4.734;2023-04-03T04:57:16;2.00;;;1.00;;
16667;SDS011;8447;52.630;4.734;2023-04-03T04:59:42;2.17;;;0.83;;
16667;SDS011;8447;52.630;4.734;2023-04-03T05:02:09;2.50;;;1.20;;
16667;SDS011;8447;52.630;4.734;2023-04-03T05:04:35;1.60;;;1.07;;
16667;SDS011;8447;52.630;4.734;2023-04-03T05:07:01;1.80;;;0.90;;
16667;SDS011;8447;52.630;4.734;2023-04-03T05:09:28;2.53;;;0.90;;
16667;SDS011;8447;52.630;4.734;2023-04-03T05:11:54;2.57;;;1.40;;
16667;SDS011;8447;52.630;4.734;2023-04-03T05:14:22;1.90;;;0.90;;
16667;SDS011;8447;52.630;4.734;2023-04-03T05:16:49;2.50;;;1.07;;
16667;SDS011;8447;52.630;4.734;2023-04-03T05:19:17;3.57;;;1.43;;
16667;SDS011;8447;52.630;4.734;2023-04-03T05:21:44;1.90;;;1.17;;
16667;SDS011;8447;52.630;4.734;2023-04-03T05:24:10;3.77;;;1.27;;
16667;SDS011;8447;52.630;4.734;2023-04-03T05:26:36;2.50;;;1.10;;
16667;SDS011;8447;52.630;4.734;2023-04-03T05:29:03;2.07;;;0.93;;
16667;SDS011;8447;52.630;4.734;2023-04-03T05:31:31;2.60;;;1.27;;
16667;SDS011;8447;52.630;4.734;2023-04-03T05:33:57;1.37;;;0.93;;
16667;SDS011;8447;52.630;4.734;2023-04-03T05:36:24;3.27;;;1.27;;
16667;SDS011;8447;52.630;4.734;2023-04-03T05:38:50;3.67;;;1.47;;
16667;SDS011;8447;52.630;4.734;2023-04-03T05:41:17;2.93;;;1.30;;
16667;SDS011;8447;52.630;4.734;2023-04-03T05:43:43;3.80;;;1.70;;
16667;SDS011;8447;52.630;4.734;2023-04-03T05:46:10;3.27;;;1.00;;
16667;SDS011;8447;52.630;4.734;2023-04-03T05:48:39;3.33;;;1.07;;
16667;SDS011;8447;52.630;4.734;2023-04-03T05:51:06;1.73;;;1.10;;
16667;SDS011;8447;52.630;4.734;2023-04-03T05:53:33;1.87;;;1.23;;
16667;SDS011;8447;52.630;4.734;2023-04-03T05:56:01;1.97;;;1.53;;
16667;SDS011;8447;52.630;4.734;2023-04-03T05:58:27;3.90;;;1.77;;
16667;SDS011;8447;52.630;4.734;2023-04-03T06:00:54;1.97;;;1.40;;
16667;SDS011;8447;52.630;4.734;2023-04-03T06:03:20;4.03;;;1.10;;
16667;SDS011;8447;52.630;4.734;2023-04-03T06:05:48;2.20;;;1.43;;
16667;SDS011;8447;52.630;4.734;2023-04-03T06:08:15;2.80;;;1.30;;
16667;SDS011;8447;52.630;4.734;2023-04-03T06:10:41;5.70;;;1.17;;
16667;SDS011;8447;52.630;4.734;2023-04-03T06:13:07;2.67;;;1.40;;
16667;SDS011;8447;52.630;4.734;2023-04-03T06:15:34;2.47;;;1.30;;
16667;SDS011;8447;52.630;4.734;2023-04-03T06:18:00;2.67;;;1.63;;
16667;SDS011;8447;52.630;4.734;2023-04-03T06:20:27;2.70;;;1.20;;
16667;SDS011;8447;52.630;4.734;2023-04-03T06:22:54;2.60;;;1.30;;
16667;SDS011;8447;52.630;4.734;2023-04-03T06:25:21;3.73;;;1.20;;
16667;SDS011;8447;52.630;4.734;2023-04-03T06:27:47;5.27;;;1.27;;
16667;SDS011;8447;52.630;4.734;2023-04-03T06:30:13;2.40;;;1.20;;
16667;SDS011;8447;52.630;4.734;2023-04-03T06:32:40;3.43;;;1.93;;
16667;SDS011;8447;52.630;4.734;2023-04-03T06:35:06;4.77;;;1.30;;
16667;SDS011;8447;52.630;4.734;2023-04-03T06:37:33;6.17;;;1.50;;
16667;SDS011;8447;52.630;4.734;2023-04-03T06:40:01;3.37;;;1.60;;
16667;SDS011;8447;52.630;4.734;2023-04-03T06:42:28;2.13;;;1.33;;
16667;SDS011;8447;52.630;4.734;2023-04-03T06:44:54;3.00;;;1.20;;
16667;SDS011;8447;52.630;4.734;2023-04-03T06:47:20;4.07;;;1.30;;
16667;SDS011;8447;52.630;4.734;2023-04-03T06:49:47;3.03;;;1.00;;
16667;SDS011;8447;52.630;4.734;2023-04-03T06:52:13;2.63;;;1.60;;
16667;SDS011;8447;52.630;4.734;2023-04-03T06:54:40;2.77;;;1.20;;
16667;SDS011;8447;52.630;4.734;2023-04-03T06:57:08;3.10;;;1.80;;
16667;SDS011;8447;52.630;4.734;2023-04-03T06:59:34;2.37;;;1.27;;
16667;SDS011;8447;52.630;4.734;2023-04-03T07:02:01;5.27;;;2.00;;
16667;SDS011;8447;52.630;4.734;2023-04-03T07:04:27;3.50;;;1.53;;
16667;SDS011;8447;52.630;4.734;2023-04-03T07:06:54;4.07;;;1.50;;
16667;SDS011;8447;52.630;4.734;2023-04-03T07:09:20;3.67;;;1.70;;
16667;SDS011;8447;52.630;4.734;2023-04-03T07:11:47;5.87;;;2.03;;
16667;SDS011;8447;52.630;4.734;2023-04-03T07:14:14;4.37;;;2.13;;
16667;SDS011;8447;52.630;4.734;2023-04-03T07:16:41;4.57;;;2.00;;
16667;SDS011;8447;52.630;4.734;2023-04-03T07:19:07;3.03;;;1.10;;
16667;SDS011;8447;52.630;4.734;2023-04-03T07:21:34;2.43;;;1.43;;
16667;SDS011;8447;52.630;4.734;2023-04-03T07:24:01;3.17;;;1.13;;
16667;SDS011;8447;52.630;4.734;2023-04-03T07:26:27;5.40;;;1.47;;
16667;SDS011;8447;52.630;4.734;2023-04-03T07:28:54;3.50;;;1.13;;
16667;SDS011;8447;52.630;4.734;2023-04-03T07:31:21;2.07;;;1.27;;
16667;SDS011;8447;52.630;4.734;2023-04-03T07:33:48;3.00;;;1.33;;
16667;SDS011;8447;52.630;4.734;2023-04-03T07:36:15;2.83;;;1.10;;
16667;SDS011;8447;52.630;4.734;2023-04-03T07:38:42;1.70;;;1.00;;
16667;SDS011;8447;52.630;4.734;2023-04-03T07:41:10;4.30;;;0.93;;
16667;SDS011;8447;52.630;4.734;2023-04-03T07:43:37;4.73;;;1.50;;
16667;SDS011;8447;52.630;4.734;2023-04-03T07:46:04;5.13;;;1.23;;
16667;SDS011;8447;52.630;4.734;2023-04-03T07:48:32;4.27;;;1.53;;
16667;SDS011;8447;52.630;4.734;2023-04-03T07:51:00;2.27;;;1.40;;
16667;SDS011;8447;52.630;4.734;2023-04-03T07:53:26;2.57;;;1.03;;
16667;SDS011;8447;52.630;4.734;2023-04-03T07:55:53;4.17;;;1.20;;
16667;SDS011;8447;52.630;4.734;2023-04-03T07:58:21;3.77;;;1.23;;
16667;SDS011;8447;52.630;4.734;2023-04-03T08:00:47;2.33;;;1.10;;
16667;SDS011;8447;52.630;4.734;2023-04-03T08:03:14;2.83;;;1.37;;
16667;SDS011;8447;52.630;4.734;2023-04-03T08:05:44;2.70;;;1.27;;
16667;SDS011;8447;52.630;4.734;2023-04-03T08:08:12;2.23;;;1.20;;
16667;SDS011;8447;52.630;4.734;2023-04-03T08:10:38;2.83;;;0.97;;
16667;SDS011;8447;52.630;4.734;2023-04-03T08:13:05;3.00;;;1.13;;
16667;SDS011;8447;52.630;4.734;2023-04-03T08:15:31;3.27;;;1.60;;
16667;SDS011;8447;52.630;4.734;2023-04-03T08:17:58;2.57;;;1.20;;
16667;SDS011;8447;52.630;4.734;2023-04-03T08:20:24;3.80;;;1.40;;
16667;SDS011;8447;52.630;4.734;2023-04-03T08:22:52;5.40;;;1.57;;
16667;SDS011;8447;52.630;4.734;2023-04-03T08:25:19;3.07;;;1.17;;
16667;SDS011;8447;52.630;4.734;2023-04-03T08:27:45;3.43;;;1.33;;
16667;SDS011;8447;52.630;4.734;2023-04-03T08:30:12;5.37;;;1.50;;
16667;SDS011;8447;52.630;4.734;2023-04-03T08:32:38;3.53;;;1.50;;
16667;SDS011;8447;52.630;4.734;2023-04-03T08:35:07;4.60;;;1.57;;
16667;SDS011;8447;52.630;4.734;2023-04-03T08:37:34;3.57;;;1.40;;
16667;SDS011;8447;52.630;4.734;2023-04-03T08:40:02;3.90;;;1.57;;
16667;SDS011;8447;52.630;4.734;2023-04-03T08:42:33;3.53;;;1.43;;
16667;SDS011;8447;52.630;4.734;2023-04-03T08:45:04;2.03;;;1.20;;
16667;SDS011;8447;52.630;4.734;2023-04-03T08:47:36;3.43;;;1.50;;
16667;SDS011;8447;52.630;4.734;2023-04-03T08:50:04;2.87;;;1.10;;
16667;SDS011;8447;52.630;4.734;2023-04-03T08:52:34;2.00;;;1.10;;
16667;SDS011;8447;52.630;4.734;2023-04-03T08:55:03;2.30;;;1.10;;
16667;SDS011;8447;52.630;4.734;2023-04-03T08:57:32;2.33;;;1.40;;
16667;SDS011;8447;52.630;4.734;2023-04-03T09:00:00;4.57;;;1.47;;
16667;SDS011;8447;52.630;4.734;2023-04-03T09:02:29;2.67;;;1.50;;
16667;SDS011;8447;52.630;4.734;2023-04-03T09:04:57;2.33;;;1.03;;
16667;SDS011;8447;52.630;4.734;2023-04-03T09:07:27;2.67;;;1.30;;
16667;SDS011;8447;52.630;4.734;2023-04-03T09:09:56;3.73;;;1.37;;
16667;SDS011;8447;52.630;4.734;2023-04-03T09:12:27;3.42;;;1.33;;
16667;SDS011;8447;52.630;4.734;2023-04-03T09:15:00;2.90;;;1.10;;
16667;SDS011;8447;52.630;4.734;2023-04-03T09:17:32;2.80;;;1.17;;
16667;SDS011;8447;52.630;4.734;2023-04-03T09:20:03;3.70;;;1.30;;
16667;SDS011;8447;52.630;4.734;2023-04-03T09:22:31;1.63;;;0.87;;
16667;SDS011;8447;52.630;4.734;2023-04-03T09:24:59;2.77;;;1.10;;
16667;SDS011;8447;52.630;4.734;2023-04-03T09:27:29;2.07;;;0.77;;
16667;SDS011;8447;52.630;4.734;2023-04-03T09:29:56;3.47;;;0.90;;
16667;SDS011;8447;52.630;4.734;2023-04-03T09:32:25;2.13;;;1.03;;
16667;SDS011;8447;52.630;4.734;2023-04-03T09:34:52;2.07;;;1.10;;
16667;SDS011;8447;52.630;4.734;2023-04-03T09:37:33;2.20;;;1.00;;
16667;SDS011;8447;52.630;4.734;2023-04-03T09:40:00;2.63;;;1.17;;
16667;SDS011;8447;52.630;4.734;2023-04-03T09:42:26;1.00;;;0.80;;
16667;SDS011;8447;52.630;4.734;2023-04-03T09:44:55;1.23;;;0.70;;
16667;SDS011;8447;52.630;4.734;2023-04-03T09:47:24;1.73;;;0.70;;
16667;SDS011;8447;52.630;4.734;2023-04-03T09:49:51;2.27;;;1.03;;
16667;SDS011;8447;52.630;4.734;2023-04-03T09:52:22;2.30;;;0.90;;
16667;SDS011;8447;52.630;4.734;2023-04-03T09:54:49;0.90;;;0.60;;
16667;SDS011;8447;52.630;4.734;2023-04-03T09:57:15;1.07;;;0.70;;
16667;SDS011;8447;52.630;4.734;2023-04-03T09:59:44;3.57;;;1.20;;
16667;SDS011;8447;52.630;4.734;2023-04-03T10:02:21;3.03;;;1.00;;
16667;SDS011;8447;52.630;4.734;2023-04-03T10:04:49;1.77;;;0.70;;
16667;SDS011;8447;52.630;4.734;2023-04-03T10:10:16;2.63;;;1.00;;
16667;SDS011;8447;52.630;4.734;2023-04-03T10:12:42;1.63;;;0.70;;
16667;SDS011;8447;52.630;4.734;2023-04-03T10:15:10;2.00;;;0.70;;
16667;SDS011;8447;52.630;4.734;2023-04-03T10:17:42;1.30;;;0.70;;
16667;SDS011;8447;52.630;4.734;2023-04-03T10:20:18;1.63;;;0.70;;
16667;SDS011;8447;52.630;4.734;2023-04-03T10:22:49;1.73;;;0.63;;
16667;SDS011;8447;52.630;4.734;2023-04-03T10:25:19;1.50;;;0.90;;
16667;SDS011;8447;52.630;4.734;2023-04-03T10:27:49;1.87;;;0.70;;
16667;SDS011;8447;52.630;4.734;2023-04-03T10:30:30;2.13;;;1.10;;
16667;SDS011;8447;52.630;4.734;2023-04-03T10:33:05;2.00;;;1.10;;
16667;SDS011;8447;52.630;4.734;2023-04-03T10:35:39;1.30;;;0.80;;
16667;SDS011;8447;52.630;4.734;2023-04-03T10:38:09;1.47;;;0.60;;
16667;SDS011;8447;52.630;4.734;2023-04-03T10:40:41;1.93;;;1.03;;
16667;SDS011;8447;52.630;4.734;2023-04-03T10:43:14;1.13;;;0.70;;
16667;SDS011;8447;52.630;4.734;2023-04-03T10:45:46;1.87;;;0.70;;
16667;SDS011;8447;52.630;4.734;2023-04-03T10:48:17;3.03;;;1.20;;
16667;SDS011;8447;52.630;4.734;2023-04-03T10:50:52;1.20;;;0.90;;
16667;SDS011;8447;52.630;4.734;2023-04-03T10:53:20;1.50;;;0.83;;
16667;SDS011;8447;52.630;4.734;2023-04-03T10:55:50;2.17;;;0.90;;
16667;SDS011;8447;52.630;4.734;2023-04-03T10:58:21;1.67;;;0.95;;
16667;SDS011;8447;52.630;4.734;2023-04-03T11:00:50;2.00;;;1.00;;
16667;SDS011;8447;52.630;4.734;2023-04-03T11:03:23;2.25;;;1.25;;
16667;SDS011;8447;52.630;4.734;2023-04-03T11:05:52;1.08;;;0.73;;
16667;SDS011;8447;52.630;4.734;2023-04-03T11:08:21;1.27;;;0.98;;
16667;SDS011;8447;52.630;4.734;2023-04-03T11:10:50;1.67;;;0.90;;
16667;SDS011;8447;52.630;4.734;2023-04-03T11:13:18;1.57;;;0.77;;
16667;SDS011;8447;52.630;4.734;2023-04-03T11:15:49;1.80;;;0.83;;
16667;SDS011;8447;52.630;4.734;2023-04-03T11:18:17;1.93;;;0.77;;
16667;SDS011;8447;52.630;4.734;2023-04-03T11:20:49;1.30;;;0.77;;
16667;SDS011;8447;52.630;4.734;2023-04-03T11:23:17;2.13;;;0.90;;
16667;SDS011;8447;52.630;4.734;2023-04-03T11:25:45;1.60;;;0.60;;
16667;SDS011;8447;52.630;4.734;2023-04-03T11:28:14;1.17;;;0.70;;
16667;SDS011;8447;52.630;4.734;2023-04-03T11:30:42;3.00;;;0.90;;
16667;SDS011;8447;52.630;4.734;2023-04-03T11:33:21;1.50;;;0.90;;
16667;SDS011;8447;52.630;4.734;2023-04-03T11:35:53;1.23;;;0.80;;
16667;SDS011;8447;52.630;4.734;2023-04-03T11:38:21;1.63;;;0.85;;
16667;SDS011;8447;52.630;4.734;2023-04-03T11:40:49;1.83;;;1.00;;
16667;SDS011;8447;52.630;4.734;2023-04-03T11:43:26;1.30;;;0.83;;
16667;SDS011;8447;52.630;4.734;2023-04-03T11:45:54;0.93;;;0.60;;
16667;SDS011;8447;52.630;4.734;2023-04-03T11:48:43;1.97;;;0.83;;
16667;SDS011;8447;52.630;4.734;2023-04-03T11:56:53;2.73;;;0.87;;
16667;SDS011;8447;52.630;4.734;2023-04-03T11:59:23;1.87;;;0.80;;
16667;SDS011;8447;52.630;4.734;2023-04-03T12:01:50;1.20;;;0.77;;
16667;SDS011;8447;52.630;4.734;2023-04-03T12:04:17;1.03;;;0.60;;
16667;SDS011;8447;52.630;4.734;2023-04-03T12:06:51;1.33;;;0.90;;
16667;SDS011;8447;52.630;4.734;2023-04-03T12:09:24;1.83;;;0.90;;
16667;SDS011;8447;52.630;4.734;2023-04-03T12:11:51;2.00;;;0.87;;
16667;SDS011;8447;52.630;4.734;2023-04-03T12:14:19;1.57;;;1.00;;
16667;SDS011;8447;52.630;4.734;2023-04-03T12:16:48;0.87;;;0.70;;
16667;SDS011;8447;52.630;4.734;2023-04-03T12:19:32;1.90;;;0.73;;
16667;SDS011;8447;52.630;4.734;2023-04-03T12:22:06;1.10;;;0.60;;
16667;SDS011;8447;52.630;4.734;2023-04-03T12:24:33;1.23;;;0.80;;
16667;SDS011;8447;52.630;4.734;2023-04-03T12:27:05;2.07;;;0.90;;
16667;SDS011;8447;52.630;4.734;2023-04-03T12:29:37;1.40;;;0.70;;
16667;SDS011;8447;52.630;4.734;2023-04-03T12:32:08;1.73;;;0.60;;
16667;SDS011;8447;52.630;4.734;2023-04-03T12:34:40;2.13;;;0.80;;
16667;SDS011;8447;52.630;4.734;2023-04-03T12:37:09;2.63;;;0.87;;
16667;SDS011;8447;52.630;4.734;2023-04-03T12:39:49;1.60;;;0.73;;
16667;SDS011;8447;52.630;4.734;2023-04-03T12:42:29;1.17;;;0.80;;
16667;SDS011;8447;52.630;4.734;2023-04-03T12:44:59;2.33;;;1.10;;
16667;SDS011;8447;52.630;4.734;2023-04-03T12:47:28;1.53;;;0.80;;
16667;SDS011;8447;52.630;4.734;2023-04-03T12:49:54;2.40;;;0.90;;
16667;SDS011;8447;52.630;4.734;2023-04-03T12:52:29;2.07;;;0.90;;
16667;SDS011;8447;52.630;4.734;2023-04-03T12:54:56;1.20;;;0.67;;
16667;SDS011;8447;52.630;4.734;2023-04-03T12:57:24;1.60;;;0.90;;
16667;SDS011;8447;52.630;4.734;2023-04-03T12:59:51;2.80;;;0.97;;
16667;SDS011;8447;52.630;4.734;2023-04-03T13:02:21;1.90;;;0.77;;
16667;SDS011;8447;52.630;4.734;2023-04-03T13:04:49;2.17;;;1.00;;
16667;SDS011;8447;52.630;4.734;2023-04-03T13:07:19;1.10;;;0.60;;
16667;SDS011;8447;52.630;4.734;2023-04-03T13:09:54;2.50;;;1.10;;
16667;SDS011;8447;52.630;4.734;2023-04-03T13:12:21;2.00;;;0.80;;
16667;SDS011;8447;52.630;4.734;2023-04-03T13:14:51;1.43;;;0.83;;
16667;SDS011;8447;52.630;4.734;2023-04-03T13:17:17;2.30;;;1.20;;
16667;SDS011;8447;52.630;4.734;2023-04-03T13:19:45;1.37;;;0.97;;
16667;SDS011;8447;52.630;4.734;2023-04-03T13:22:19;3.93;;;1.00;;
16667;SDS011;8447;52.630;4.734;2023-04-03T13:24:49;1.13;;;0.70;;
16667;SDS011;8447;52.630;4.734;2023-04-03T13:27:17;1.77;;;1.00;;
16667;SDS011;8447;52.630;4.734;2023-04-03T13:29:45;3.37;;;1.30;;
16667;SDS011;8447;52.630;4.734;2023-04-03T13:32:17;1.83;;;0.93;;
16667;SDS011;8447;52.630;4.734;2023-04-03T13:34:45;1.50;;;0.90;;
16667;SDS011;8447;52.630;4.734;2023-04-03T13:37:19;1.67;;;0.93;;
16667;SDS011;8447;52.630;4.734;2023-04-03T13:39:45;1.40;;;0.63;;
16667;SDS011;8447;52.630;4.734;2023-04-03T13:42:23;1.57;;;0.60;;
16667;SDS011;8447;52.630;4.734;2023-04-03T13:45:05;1.73;;;1.03;;
16667;SDS011;8447;52.630;4.734;2023-04-03T13:47:37;2.13;;;0.87;;
16667;SDS011;8447;52.630;4.734;2023-04-03T13:50:12;3.53;;;1.00;;
16667;SDS011;8447;52.630;4.734;2023-04-03T13:52:41;1.17;;;0.80;;
16667;SDS011;8447;52.630;4.734;2023-04-03T13:55:15;2.37;;;0.90;;
16667;SDS011;8447;52.630;4.734;2023-04-03T13:57:48;1.70;;;0.90;;
16667;SDS011;8447;52.630;4.734;2023-04-03T14:00:22;2.40;;;0.90;;
16667;SDS011;8447;52.630;4.734;2023-04-03T14:02:53;2.00;;;1.17;;
16667;SDS011;8447;52.630;4.734;2023-04-03T14:05:23;1.43;;;0.80;;
16667;SDS011;8447;52.630;4.734;2023-04-03T14:07:50;1.20;;;0.67;;
16667;SDS011;8447;52.630;4.734;2023-04-03T14:10:16;3.20;;;1.07;;
16667;SDS011;8447;52.630;4.734;2023-04-03T14:12:43;1.90;;;0.90;;
16667;SDS011;8447;52.630;4.734;2023-04-03T14:15:14;1.80;;;0.90;;
16667;SDS011;8447;52.630;4.734;2023-04-03T14:17:41;2.23;;;0.83;;
16667;SDS011;8447;52.630;4.734;2023-04-03T14:20:10;1.30;;;0.53;;
16667;SDS011;8447;52.630;4.734;2023-04-03T14:22:38;2.63;;;0.90;;
16667;SDS011;8447;52.630;4.734;2023-04-03T14:25:05;1.93;;;0.73;;
16667;SDS011;8447;52.630;4.734;2023-04-03T14:27:33;1.70;;;1.03;;
16667;SDS011;8447;52.630;4.734;2023-04-03T14:30:00;1.23;;;0.80;;
16667;SDS011;8447;52.630;4.734;2023-04-03T14:32:28;2.07;;;0.80;;
16667;SDS011;8447;52.630;4.734;2023-04-03T14:34:55;4.17;;;0.80;;
16667;SDS011;8447;52.630;4.734;2023-04-03T14:37:22;1.87;;;0.90;;
16667;SDS011;8447;52.630;4.734;2023-04-03T14:39:51;2.83;;;0.73;;
16667;SDS011;8447;52.630;4.734;2023-04-03T14:42:19;1.37;;;0.80;;
16667;SDS011;8447;52.630;4.734;2023-04-03T14:44:46;2.07;;;1.00;;
16667;SDS011;8447;52.630;4.734;2023-04-03T14:47:12;1.20;;;0.87;;
16667;SDS011;8447;52.630;4.734;2023-04-03T14:49:40;1.40;;;0.70;;
16667;SDS011;8447;52.630;4.734;2023-04-03T14:52:06;2.63;;;0.60;;
16667;SDS011;8447;52.630;4.734;2023-04-03T14:54:41;1.90;;;0.90;;
16667;SDS011;8447;52.630;4.734;2023-04-03T14:57:09;1.30;;;0.80;;
16667;SDS011;8447;52.630;4.734;2023-04-03T14:59:38;2.07;;;0.97;;
16667;SDS011;8447;52.630;4.734;2023-04-03T15:02:08;1.73;;;0.93;;
16667;SDS011;8447;52.630;4.734;2023-04-03T15:04:39;1.47;;;0.80;;
16667;SDS011;8447;52.630;4.734;2023-04-03T15:07:07;2.07;;;0.90;;
16667;SDS011;8447;52.630;4.734;2023-04-03T15:09:34;0.90;;;0.50;;
16667;SDS011;8447;52.630;4.734;2023-04-03T15:12:01;1.30;;;0.70;;
16667;SDS011;8447;52.630;4.734;2023-04-03T15:14:29;1.47;;;0.70;;